sensor_id;sensor_type;location;lat;lon;timestamp;temperature;humidity
19132;DHT22;9698;51.976;7.570;2023-12-04T00:00:33;2.00;99.90
19132;DHT22;9698;51.976;7.570;2023-12-04T00:03:01;2.10;99.90
19132;DHT22;9698;51.976;7.570;2023-12-04T00:05:29;2.00;99.90
19132;DHT22;9698;51.976;7.570;2023-12-04T00:07:58;2.10;99.90
19132;DHT22;9698;51.976;7.570;2023-12-04T00:10:25;2.50;99.90
19132;DHT22;9698;51.976;7.570;2023-12-04T00:12:54;2.10;99.90
19132;DHT22;9698;51.976;7.570;2023-12-04T00:15:21;2.10;99.90
19132;DHT22;9698;51.976;7.570;2023-12-04T00:17:49;2.10;99.90
19132;DHT22;9698;51.976;7.570;2023-12-04T00:20:17;2.10;99.90
19132;DHT22;9698;51.976;7.570;2023-12-04T00:22:46;2.10;99.90
19132;DHT22;9698;51.976;7.570;2023-12-04T00:25:14;2.10;99.90
19132;DHT22;9698;51.976;7.570;2023-12-04T00:27:41;2.10;99.90
19132;DHT22;9698;51.976;7.570;2023-12-04T00:30:11;2.20;99.90
19132;DHT22;9698;51.976;7.570;2023-12-04T00:32:38;2.10;99.90
19132;DHT22;9698;51.976;7.570;2023-12-04T00:35:07;2.10;99.90
19132;DHT22;9698;51.976;7.570;2023-12-04T00:37:35;1.80;99.90
19132;DHT22;9698;51.976;7.570;2023-12-04T00:40:07;2.10;99.90
19132;DHT22;9698;51.976;7.570;2023-12-04T00:42:35;2.10;99.90
19132;DHT22;9698;51.976;7.570;2023-12-04T00:45:04;2.20;99.90
19132;DHT22;9698;51.976;7.570;2023-12-04T00:47:32;2.10;99.90
19132;DHT22;9698;51.976;7.570;2023-12-04T00:50:01;2.40;99.90
19132;DHT22;9698;51.976;7.570;2023-12-04T00:52:28;2.10;99.90
19132;DHT22;9698;51.976;7.570;2023-12-04T00:54:57;1.90;99.90
19132;DHT22;9698;51.976;7.570;2023-12-04T00:57:24;2.20;99.90
19132;DHT22;9698;51.976;7.570;2023-12-04T00:59:52;2.40;99.90
19132;DHT22;9698;51.976;7.570;2023-12-04T01:02:20;2.10;99.90
19132;DHT22;9698;51.976;7.570;2023-12-04T01:04:47;2.10;99.90
19132;DHT22;9698;51.976;7.570;2023-12-04T01:07:15;2.10;99.90
19132;DHT22;9698;51.976;7.570;2023-12-04T01:09:43;2.10;99.90
19132;DHT22;9698;51.976;7.570;2023-12-04T01:12:11;2.20;99.90
19132;DHT22;9698;51.976;7.570;2023-12-04T01:14:38;2.10;99.90
19132;DHT22;9698;51.976;7.570;2023-12-04T01:17:06;2.00;99.90
19132;DHT22;9698;51.976;7.570;2023-12-04T01:19:34;2.10;99.90
19132;DHT22;9698;51.976;7.570;2023-12-04T01:22:01;2.20;99.90
19132;DHT22;9698;51.976;7.570;2023-12-04T01:24:29;2.20;99.90
19132;DHT22;9698;51.976;7.570;2023-12-04T01:26:57;2.20;99.90
19132;DHT22;9698;51.976;7.570;2023-12-04T01:29:25;2.20;99.90
19132;DHT22;9698;51.976;7.570;2023-12-04T01:31:52;2.20;99.90
19132;DHT22;9698;51.976;7.570;2023-12-04T01:34:20;2.20;99.90
19132;DHT22;9698;51.976;7.570;2023-12-04T01:36:48;2.20;99.90
19132;DHT22;9698;51.976;7.570;2023-12-04T01:39:15;2.10;99.90
19132;DHT22;9698;51.976;7.570;2023-12-04T01:41:43;2.10;99.90
19132;DHT22;9698;51.976;7.570;2023-12-04T01:44:11;2.10;99.90
19132;DHT22;9698;51.976;7.570;2023-12-04T01:46:39;2.10;99.90
19132;DHT22;9698;51.976;7.570;2023-12-04T01:49:06;2.20;99.90
19132;DHT22;9698;51.976;7.570;2023-12-04T01:51:35;2.00;99.90
19132;DHT22;9698;51.976;7.570;2023-12-04T01:54:04;2.00;99.90
19132;DHT22;9698;51.976;7.570;2023-12-04T01:56:32;2.10;99.90
19132;DHT22;9698;51.976;7.570;2023-12-04T01:59:01;2.00;99.90
19132;DHT22;9698;51.976;7.570;2023-12-04T02:01:29;2.20;99.90
19132;DHT22;9698;51.976;7.570;2023-12-04T02:03:58;2.20;99.90
19132;DHT22;9698;51.976;7.570;2023-12-04T02:06:28;2.20;99.90
19132;DHT22;9698;51.976;7.570;2023-12-04T02:08:57;2.20;99.90
19132;DHT22;9698;51.976;7.570;2023-12-04T02:11:24;2.20;99.90
19132;DHT22;9698;51.976;7.570;2023-12-04T02:13:52;2.20;99.90
19132;DHT22;9698;51.976;7.570;2023-12-04T02:16:20;2.20;99.90
19132;DHT22;9698;51.976;7.570;2023-12-04T02:18:52;2.20;99.90
19132;DHT22;9698;51.976;7.570;2023-12-04T02:21:20;2.20;99.90
19132;DHT22;9698;51.976;7.570;2023-12-04T02:23:49;2.20;99.90
19132;DHT22;9698;51.976;7.570;2023-12-04T02:26:21;2.30;99.90
19132;DHT22;9698;51.976;7.570;2023-12-04T02:28:58;2.20;99.90
19132;DHT22;9698;51.976;7.570;2023-12-04T02:31:27;2.10;99.90
19132;DHT22;9698;51.976;7.570;2023-12-04T02:33:58;2.30;99.90
19132;DHT22;9698;51.976;7.570;2023-12-04T02:36:27;2.20;99.90
19132;DHT22;9698;51.976;7.570;2023-12-04T02:38:57;2.10;99.90
19132;DHT22;9698;51.976;7.570;2023-12-04T02:41:25;2.10;99.90
19132;DHT22;9698;51.976;7.570;2023-12-04T02:43:52;2.20;99.90
19132;DHT22;9698;51.976;7.570;2023-12-04T02:46:20;2.20;99.90
19132;DHT22;9698;51.976;7.570;2023-12-04T02:48:48;2.10;99.90
19132;DHT22;9698;51.976;7.570;2023-12-04T02:51:16;2.20;99.90
19132;DHT22;9698;51.976;7.570;2023-12-04T02:53:43;2.20;99.90
19132;DHT22;9698;51.976;7.570;2023-12-04T02:56:12;2.20;99.90
19132;DHT22;9698;51.976;7.570;2023-12-04T02:58:39;2.20;99.90
19132;DHT22;9698;51.976;7.570;2023-12-04T03:01:08;2.10;99.90
19132;DHT22;9698;51.976;7.570;2023-12-04T03:03:35;2.10;99.90
19132;DHT22;9698;51.976;7.570;2023-12-04T03:06:05;2.20;99.90
19132;DHT22;9698;51.976;7.570;2023-12-04T03:08:33;2.10;99.90
19132;DHT22;9698;51.976;7.570;2023-12-04T03:11:02;2.00;99.90
19132;DHT22;9698;51.976;7.570;2023-12-04T03:13:30;2.30;99.90
19132;DHT22;9698;51.976;7.570;2023-12-04T03:15:58;2.20;99.90
19132;DHT22;9698;51.976;7.570;2023-12-04T03:18:26;2.20;99.90
19132;DHT22;9698;51.976;7.570;2023-12-04T03:20:56;2.10;99.90
19132;DHT22;9698;51.976;7.570;2023-12-04T03:23:23;2.50;99.90
19132;DHT22;9698;51.976;7.570;2023-12-04T03:25:51;2.20;99.90
19132;DHT22;9698;51.976;7.570;2023-12-04T03:28:18;2.20;99.90
19132;DHT22;9698;51.976;7.570;2023-12-04T03:30:46;2.20;99.90
19132;DHT22;9698;51.976;7.570;2023-12-04T03:33:14;2.20;99.90
19132;DHT22;9698;51.976;7.570;2023-12-04T03:38:09;2.20;99.90
19132;DHT22;9698;51.976;7.570;2023-12-04T03:40:37;2.20;99.90
19132;DHT22;9698;51.976;7.570;2023-12-04T03:43:05;2.00;99.90
19132;DHT22;9698;51.976;7.570;2023-12-04T03:45:32;2.20;99.90
19132;DHT22;9698;51.976;7.570;2023-12-04T03:48:00;2.30;99.90
19132;DHT22;9698;51.976;7.570;2023-12-04T03:50:28;2.30;99.90
19132;DHT22;9698;51.976;7.570;2023-12-04T03:52:56;2.30;99.90
19132;DHT22;9698;51.976;7.570;2023-12-04T03:55:23;2.40;99.90
19132;DHT22;9698;51.976;7.570;2023-12-04T03:57:52;2.40;99.90
19132;DHT22;9698;51.976;7.570;2023-12-04T04:00:21;2.30;99.90
19132;DHT22;9698;51.976;7.570;2023-12-04T04:02:49;2.30;99.90
19132;DHT22;9698;51.976;7.570;2023-12-04T04:05:19;2.30;99.90
19132;DHT22;9698;51.976;7.570;2023-12-04T04:07:46;2.40;99.90
19132;DHT22;9698;51.976;7.570;2023-12-04T04:10:14;2.30;99.90
19132;DHT22;9698;51.976;7.570;2023-12-04T04:12:42;2.30;99.90
19132;DHT22;9698;51.976;7.570;2023-12-04T04:15:11;2.30;99.90
19132;DHT22;9698;51.976;7.570;2023-12-04T04:17:39;2.40;99.90
19132;DHT22;9698;51.976;7.570;2023-12-04T04:20:09;2.30;99.90
19132;DHT22;9698;51.976;7.570;2023-12-04T04:22:38;2.30;99.90
19132;DHT22;9698;51.976;7.570;2023-12-04T04:25:09;2.30;99.90
19132;DHT22;9698;51.976;7.570;2023-12-04T04:27:36;2.30;99.90
19132;DHT22;9698;51.976;7.570;2023-12-04T04:30:06;2.30;99.90
19132;DHT22;9698;51.976;7.570;2023-12-04T04:32:35;2.20;99.90
19132;DHT22;9698;51.976;7.570;2023-12-04T04:35:04;2.40;99.90
19132;DHT22;9698;51.976;7.570;2023-12-04T04:37:32;2.40;99.90
19132;DHT22;9698;51.976;7.570;2023-12-04T04:39:59;2.40;99.90
19132;DHT22;9698;51.976;7.570;2023-12-04T04:42:27;2.30;99.90
19132;DHT22;9698;51.976;7.570;2023-12-04T04:44:55;2.40;99.90
19132;DHT22;9698;51.976;7.570;2023-12-04T04:47:22;2.30;99.90
19132;DHT22;9698;51.976;7.570;2023-12-04T04:49:50;2.40;99.90
19132;DHT22;9698;51.976;7.570;2023-12-04T04:52:18;2.50;99.90
19132;DHT22;9698;51.976;7.570;2023-12-04T04:54:45;2.50;99.90
19132;DHT22;9698;51.976;7.570;2023-12-04T04:57:13;2.30;99.90
19132;DHT22;9698;51.976;7.570;2023-12-04T04:59:41;2.30;99.90
19132;DHT22;9698;51.976;7.570;2023-12-04T05:02:08;2.30;99.90
19132;DHT22;9698;51.976;7.570;2023-12-04T05:04:36;2.40;99.90
19132;DHT22;9698;51.976;7.570;2023-12-04T05:07:04;2.40;99.90
19132;DHT22;9698;51.976;7.570;2023-12-04T05:09:32;2.40;99.90
19132;DHT22;9698;51.976;7.570;2023-12-04T05:12:00;2.40;99.90
19132;DHT22;9698;51.976;7.570;2023-12-04T05:14:27;2.50;99.90
19132;DHT22;9698;51.976;7.570;2023-12-04T05:16:55;2.60;99.90
19132;DHT22;9698;51.976;7.570;2023-12-04T05:19:23;2.40;99.90
19132;DHT22;9698;51.976;7.570;2023-12-04T05:21:51;2.40;99.90
19132;DHT22;9698;51.976;7.570;2023-12-04T05:24:19;2.40;99.90
19132;DHT22;9698;51.976;7.570;2023-12-04T05:26:46;2.90;99.90
19132;DHT22;9698;51.976;7.570;2023-12-04T05:29:14;2.50;99.90
19132;DHT22;9698;51.976;7.570;2023-12-04T05:31:42;2.50;99.90
19132;DHT22;9698;51.976;7.570;2023-12-04T05:34:09;2.50;99.90
19132;DHT22;9698;51.976;7.570;2023-12-04T05:36:37;2.60;99.90
19132;DHT22;9698;51.976;7.570;2023-12-04T05:39:05;2.60;99.90
19132;DHT22;9698;51.976;7.570;2023-12-04T05:41:33;2.50;99.90
19132;DHT22;9698;51.976;7.570;2023-12-04T05:44:00;2.50;99.90
19132;DHT22;9698;51.976;7.570;2023-12-04T05:46:28;2.50;99.90
19132;DHT22;9698;51.976;7.570;2023-12-04T05:48:56;2.70;99.90
19132;DHT22;9698;51.976;7.570;2023-12-04T05:51:24;2.60;99.90
19132;DHT22;9698;51.976;7.570;2023-12-04T05:53:51;2.80;99.90
19132;DHT22;9698;51.976;7.570;2023-12-04T05:56:19;2.30;99.90
19132;DHT22;9698;51.976;7.570;2023-12-04T05:58:47;3.00;99.90
19132;DHT22;9698;51.976;7.570;2023-12-04T06:01:15;2.60;99.90
19132;DHT22;9698;51.976;7.570;2023-12-04T06:03:43;2.90;99.90
19132;DHT22;9698;51.976;7.570;2023-12-04T06:06:11;2.50;99.90
19132;DHT22;9698;51.976;7.570;2023-12-04T06:08:39;2.60;99.90
19132;DHT22;9698;51.976;7.570;2023-12-04T06:11:07;2.50;99.90
19132;DHT22;9698;51.976;7.570;2023-12-04T06:13:35;2.60;99.90
19132;DHT22;9698;51.976;7.570;2023-12-04T06:16:03;2.60;99.90
19132;DHT22;9698;51.976;7.570;2023-12-04T06:18:31;2.60;99.90
19132;DHT22;9698;51.976;7.570;2023-12-04T06:20:59;2.40;99.90
19132;DHT22;9698;51.976;7.570;2023-12-04T06:23:28;2.60;99.90
19132;DHT22;9698;51.976;7.570;2023-12-04T06:25:57;2.60;99.90
19132;DHT22;9698;51.976;7.570;2023-12-04T06:28:26;2.50;99.90
19132;DHT22;9698;51.976;7.570;2023-12-04T06:30:55;2.50;99.90
19132;DHT22;9698;51.976;7.570;2023-12-04T06:33:24;2.40;99.90
19132;DHT22;9698;51.976;7.570;2023-12-04T06:35:56;2.50;99.90
19132;DHT22;9698;51.976;7.570;2023-12-04T06:38:25;2.50;99.90
19132;DHT22;9698;51.976;7.570;2023-12-04T06:40:55;2.50;99.90
19132;DHT22;9698;51.976;7.570;2023-12-04T06:43:24;2.40;99.90
19132;DHT22;9698;51.976;7.570;2023-12-04T06:45:56;2.30;99.90
19132;DHT22;9698;51.976;7.570;2023-12-04T06:48:27;2.50;99.90
19132;DHT22;9698;51.976;7.570;2023-12-04T06:50:54;2.50;99.90
19132;DHT22;9698;51.976;7.570;2023-12-04T06:53:23;2.50;99.90
19132;DHT22;9698;51.976;7.570;2023-12-04T06:55:50;2.50;99.90
19132;DHT22;9698;51.976;7.570;2023-12-04T06:58:18;2.50;99.90
19132;DHT22;9698;51.976;7.570;2023-12-04T07:00:46;2.40;99.90
19132;DHT22;9698;51.976;7.570;2023-12-04T07:03:14;2.50;99.90
19132;DHT22;9698;51.976;7.570;2023-12-04T07:05:41;2.50;99.90
19132;DHT22;9698;51.976;7.570;2023-12-04T07:08:09;2.40;99.90
19132;DHT22;9698;51.976;7.570;2023-12-04T07:10:37;2.60;99.90
19132;DHT22;9698;51.976;7.570;2023-12-04T07:13:05;2.70;99.90
19132;DHT22;9698;51.976;7.570;2023-12-04T07:15:33;2.50;99.90
19132;DHT22;9698;51.976;7.570;2023-12-04T07:18:01;2.60;99.90
19132;DHT22;9698;51.976;7.570;2023-12-04T07:20:28;2.50;99.90
19132;DHT22;9698;51.976;7.570;2023-12-04T07:22:56;2.50;99.90
19132;DHT22;9698;51.976;7.570;2023-12-04T07:25:25;2.50;99.90
19132;DHT22;9698;51.976;7.570;2023-12-04T07:27:53;2.60;99.90
19132;DHT22;9698;51.976;7.570;2023-12-04T07:30:21;2.60;99.90
19132;DHT22;9698;51.976;7.570;2023-12-04T07:32:48;2.40;99.90
19132;DHT22;9698;51.976;7.570;2023-12-04T07:35:17;2.60;99.90
19132;DHT22;9698;51.976;7.570;2023-12-04T07:37:45;2.50;99.90
19132;DHT22;9698;51.976;7.570;2023-12-04T07:40:14;2.50;99.90
19132;DHT22;9698;51.976;7.570;2023-12-04T07:42:42;2.50;99.90
19132;DHT22;9698;51.976;7.570;2023-12-04T07:45:11;2.70;99.90
19132;DHT22;9698;51.976;7.570;2023-12-04T07:47:39;2.60;99.90
19132;DHT22;9698;51.976;7.570;2023-12-04T07:50:09;2.60;99.90
19132;DHT22;9698;51.976;7.570;2023-12-04T07:52:36;2.50;99.90
19132;DHT22;9698;51.976;7.570;2023-12-04T07:55:06;2.60;99.90
19132;DHT22;9698;51.976;7.570;2023-12-04T07:57:33;2.80;99.90
19132;DHT22;9698;51.976;7.570;2023-12-04T08:00:02;2.70;99.90
19132;DHT22;9698;51.976;7.570;2023-12-04T08:02:30;2.50;99.90
19132;DHT22;9698;51.976;7.570;2023-12-04T08:04:58;2.70;99.90
19132;DHT22;9698;51.976;7.570;2023-12-04T08:07:25;2.60;99.90
19132;DHT22;9698;51.976;7.570;2023-12-04T08:09:53;2.70;99.90
19132;DHT22;9698;51.976;7.570;2023-12-04T08:12:21;2.60;99.90
19132;DHT22;9698;51.976;7.570;2023-12-04T08:14:49;2.60;99.90
19132;DHT22;9698;51.976;7.570;2023-12-04T08:17:16;2.80;99.90
19132;DHT22;9698;51.976;7.570;2023-12-04T08:19:45;2.60;99.90
19132;DHT22;9698;51.976;7.570;2023-12-04T08:22:15;2.60;99.90
19132;DHT22;9698;51.976;7.570;2023-12-04T08:24:43;2.60;99.90
19132;DHT22;9698;51.976;7.570;2023-12-04T08:27:11;3.30;99.90
19132;DHT22;9698;51.976;7.570;2023-12-04T08:29:40;2.80;99.90
19132;DHT22;9698;51.976;7.570;2023-12-04T08:32:08;2.60;99.90
19132;DHT22;9698;51.976;7.570;2023-12-04T08:34:36;2.60;99.90
19132;DHT22;9698;51.976;7.570;2023-12-04T08:37:05;2.40;99.90
19132;DHT22;9698;51.976;7.570;2023-12-04T08:39:33;2.60;99.90
19132;DHT22;9698;51.976;7.570;2023-12-04T08:42:00;2.60;99.90
19132;DHT22;9698;51.976;7.570;2023-12-04T08:44:35;2.40;99.90
19132;DHT22;9698;51.976;7.570;2023-12-04T08:47:03;2.80;99.90
19132;DHT22;9698;51.976;7.570;2023-12-04T08:49:31;2.70;99.90
19132;DHT22;9698;51.976;7.570;2023-12-04T08:52:10;2.60;99.90
19132;DHT22;9698;51.976;7.570;2023-12-04T08:54:40;2.70;99.90
19132;DHT22;9698;51.976;7.570;2023-12-04T08:57:08;2.80;99.90
19132;DHT22;9698;51.976;7.570;2023-12-04T08:59:37;2.80;99.90
19132;DHT22;9698;51.976;7.570;2023-12-04T09:02:05;2.80;99.90
19132;DHT22;9698;51.976;7.570;2023-12-04T09:04:33;2.60;99.90
19132;DHT22;9698;51.976;7.570;2023-12-04T09:07:02;2.80;99.90
19132;DHT22;9698;51.976;7.570;2023-12-04T09:11:01;2.70;99.90
19132;DHT22;9698;51.976;7.570;2023-12-04T09:13:48;2.80;99.90
19132;DHT22;9698;51.976;7.570;2023-12-04T09:16:16;2.80;99.90
19132;DHT22;9698;51.976;7.570;2023-12-04T09:18:44;3.10;99.90
19132;DHT22;9698;51.976;7.570;2023-12-04T09:21:13;2.90;99.90
19132;DHT22;9698;51.976;7.570;2023-12-04T09:23:41;2.80;99.90
19132;DHT22;9698;51.976;7.570;2023-12-04T09:26:09;2.80;99.90
19132;DHT22;9698;51.976;7.570;2023-12-04T09:28:38;3.40;99.90
19132;DHT22;9698;51.976;7.570;2023-12-04T09:31:08;2.80;99.90
19132;DHT22;9698;51.976;7.570;2023-12-04T09:33:35;2.80;99.90
19132;DHT22;9698;51.976;7.570;2023-12-04T09:36:07;2.90;99.90
19132;DHT22;9698;51.976;7.570;2023-12-04T09:38:35;3.00;99.90
19132;DHT22;9698;51.976;7.570;2023-12-04T09:41:04;2.80;99.90
19132;DHT22;9698;51.976;7.570;2023-12-04T09:43:34;2.90;99.90
19132;DHT22;9698;51.976;7.570;2023-12-04T09:46:02;2.90;99.90
19132;DHT22;9698;51.976;7.570;2023-12-04T09:48:31;4.70;99.90
19132;DHT22;9698;51.976;7.570;2023-12-04T09:50:59;2.80;99.90
19132;DHT22;9698;51.976;7.570;2023-12-04T09:53:29;2.90;99.90
19132;DHT22;9698;51.976;7.570;2023-12-04T09:56:00;2.90;99.90
19132;DHT22;9698;51.976;7.570;2023-12-04T09:58:31;2.90;99.90
19132;DHT22;9698;51.976;7.570;2023-12-04T10:01:00;2.80;99.90
19132;DHT22;9698;51.976;7.570;2023-12-04T10:03:28;2.90;99.90
19132;DHT22;9698;51.976;7.570;2023-12-04T10:05:57;2.90;99.90
19132;DHT22;9698;51.976;7.570;2023-12-04T10:08:25;3.10;99.90
19132;DHT22;9698;51.976;7.570;2023-12-04T10:10:52;3.00;99.90
19132;DHT22;9698;51.976;7.570;2023-12-04T10:13:21;3.20;99.90
19132;DHT22;9698;51.976;7.570;2023-12-04T10:16:34;2.90;99.90
19132;DHT22;9698;51.976;7.570;2023-12-04T10:19:18;3.00;99.90
19132;DHT22;9698;51.976;7.570;2023-12-04T10:21:48;2.90;99.90
19132;DHT22;9698;51.976;7.570;2023-12-04T10:24:30;2.90;99.90
19132;DHT22;9698;51.976;7.570;2023-12-04T10:26:59;2.90;99.90
19132;DHT22;9698;51.976;7.570;2023-12-04T10:29:29;3.00;99.90
19132;DHT22;9698;51.976;7.570;2023-12-04T10:31:59;2.80;99.90
19132;DHT22;9698;51.976;7.570;2023-12-04T10:34:29;2.90;99.90
19132;DHT22;9698;51.976;7.570;2023-12-04T10:36:58;2.90;99.90
19132;DHT22;9698;51.976;7.570;2023-12-04T10:39:26;2.90;99.90
19132;DHT22;9698;51.976;7.570;2023-12-04T10:42:02;2.90;99.90
19132;DHT22;9698;51.976;7.570;2023-12-04T10:44:31;3.00;99.90
19132;DHT22;9698;51.976;7.570;2023-12-04T10:47:00;3.00;99.90
19132;DHT22;9698;51.976;7.570;2023-12-04T10:49:29;2.90;99.90
19132;DHT22;9698;51.976;7.570;2023-12-04T10:51:57;3.10;99.90
19132;DHT22;9698;51.976;7.570;2023-12-04T10:54:27;3.00;99.90
19132;DHT22;9698;51.976;7.570;2023-12-04T10:56:58;3.20;99.90
19132;DHT22;9698;51.976;7.570;2023-12-04T10:59:31;3.10;99.90
19132;DHT22;9698;51.976;7.570;2023-12-04T11:02:02;3.30;99.90
19132;DHT22;9698;51.976;7.570;2023-12-04T11:04:32;4.20;99.90
19132;DHT22;9698;51.976;7.570;2023-12-04T11:07:03;3.30;99.90
19132;DHT22;9698;51.976;7.570;2023-12-04T11:09:35;3.20;99.90
19132;DHT22;9698;51.976;7.570;2023-12-04T11:12:10;3.10;99.90
19132;DHT22;9698;51.976;7.570;2023-12-04T11:14:44;3.30;99.90
19132;DHT22;9698;51.976;7.570;2023-12-04T11:17:15;3.30;99.90
19132;DHT22;9698;51.976;7.570;2023-12-04T11:22:16;3.40;99.90
19132;DHT22;9698;51.976;7.570;2023-12-04T11:27:16;3.30;99.90
19132;DHT22;9698;51.976;7.570;2023-12-04T11:29:44;3.40;99.90
19132;DHT22;9698;51.976;7.570;2023-12-04T11:32:14;3.30;99.90
19132;DHT22;9698;51.976;7.570;2023-12-04T11:34:49;3.30;99.90
19132;DHT22;9698;51.976;7.570;2023-12-04T11:37:17;3.40;99.90
19132;DHT22;9698;51.976;7.570;2023-12-04T11:39:47;3.50;99.90
19132;DHT22;9698;51.976;7.570;2023-12-04T11:42:19;3.30;99.90
19132;DHT22;9698;51.976;7.570;2023-12-04T11:44:49;3.40;99.90
19132;DHT22;9698;51.976;7.570;2023-12-04T11:47:17;3.50;99.90
19132;DHT22;9698;51.976;7.570;2023-12-04T11:49:45;3.50;99.90
19132;DHT22;9698;51.976;7.570;2023-12-04T11:52:13;3.50;99.90
19132;DHT22;9698;51.976;7.570;2023-12-04T11:54:57;3.60;99.90
19132;DHT22;9698;51.976;7.570;2023-12-04T11:57:26;3.40;99.90
19132;DHT22;9698;51.976;7.570;2023-12-04T12:00:13;3.40;99.90
19132;DHT22;9698;51.976;7.570;2023-12-04T12:02:49;3.60;99.90
19132;DHT22;9698;51.976;7.570;2023-12-04T12:05:50;3.50;99.90
19132;DHT22;9698;51.976;7.570;2023-12-04T12:08:19;3.50;99.90
19132;DHT22;9698;51.976;7.570;2023-12-04T12:10:50;3.50;99.90
19132;DHT22;9698;51.976;7.570;2023-12-04T12:13:21;3.70;99.90
19132;DHT22;9698;51.976;7.570;2023-12-04T12:15:49;3.50;99.90
19132;DHT22;9698;51.976;7.570;2023-12-04T12:18:18;3.60;99.90
19132;DHT22;9698;51.976;7.570;2023-12-04T12:20:46;3.70;99.90
19132;DHT22;9698;51.976;7.570;2023-12-04T12:23:14;3.70;99.90
19132;DHT22;9698;51.976;7.570;2023-12-04T12:25:42;3.70;99.90
19132;DHT22;9698;51.976;7.570;2023-12-04T12:28:10;3.70;99.90
19132;DHT22;9698;51.976;7.570;2023-12-04T12:30:38;3.70;99.90
19132;DHT22;9698;51.976;7.570;2023-12-04T12:33:06;3.70;99.90
19132;DHT22;9698;51.976;7.570;2023-12-04T12:35:35;3.80;99.90
19132;DHT22;9698;51.976;7.570;2023-12-04T12:38:03;3.80;99.90
19132;DHT22;9698;51.976;7.570;2023-12-04T12:40:31;3.70;99.90
19132;DHT22;9698;51.976;7.570;2023-12-04T12:43:06;3.80;99.90
19132;DHT22;9698;51.976;7.570;2023-12-04T12:45:42;3.80;99.90
19132;DHT22;9698;51.976;7.570;2023-12-04T12:48:14;3.70;99.90
19132;DHT22;9698;51.976;7.570;2023-12-04T12:50:42;3.40;99.90
19132;DHT22;9698;51.976;7.570;2023-12-04T12:53:11;3.70;99.90
19132;DHT22;9698;51.976;7.570;2023-12-04T12:55:40;3.70;99.90
19132;DHT22;9698;51.976;7.570;2023-12-04T12:58:09;3.70;99.90
19132;DHT22;9698;51.976;7.570;2023-12-04T13:00:37;3.70;99.90
19132;DHT22;9698;51.976;7.570;2023-12-04T13:03:06;3.70;99.90
19132;DHT22;9698;51.976;7.570;2023-12-04T13:05:41;3.80;99.90
19132;DHT22;9698;51.976;7.570;2023-12-04T13:08:09;3.70;99.90
19132;DHT22;9698;51.976;7.570;2023-12-04T13:10:40;3.70;99.90
19132;DHT22;9698;51.976;7.570;2023-12-04T13:13:11;3.60;99.90
19132;DHT22;9698;51.976;7.570;2023-12-04T13:15:39;3.70;99.90
19132;DHT22;9698;51.976;7.570;2023-12-04T13:18:08;3.40;99.90
19132;DHT22;9698;51.976;7.570;2023-12-04T13:20:36;3.70;99.90
19132;DHT22;9698;51.976;7.570;2023-12-04T13:23:04;3.70;99.90
19132;DHT22;9698;51.976;7.570;2023-12-04T13:25:32;3.80;99.90
19132;DHT22;9698;51.976;7.570;2023-12-04T13:28:00;3.70;99.90
19132;DHT22;9698;51.976;7.570;2023-12-04T13:30:28;3.70;99.90
19132;DHT22;9698;51.976;7.570;2023-12-04T13:32:56;3.70;99.90
19132;DHT22;9698;51.976;7.570;2023-12-04T13:35:24;3.50;99.90
19132;DHT22;9698;51.976;7.570;2023-12-04T13:37:52;3.60;99.90
19132;DHT22;9698;51.976;7.570;2023-12-04T13:40:24;3.60;99.90
19132;DHT22;9698;51.976;7.570;2023-12-04T13:42:55;3.70;99.90
19132;DHT22;9698;51.976;7.570;2023-12-04T13:45:41;3.60;99.90
19132;DHT22;9698;51.976;7.570;2023-12-04T13:48:09;3.60;99.90
19132;DHT22;9698;51.976;7.570;2023-12-04T13:50:37;3.70;99.90
19132;DHT22;9698;51.976;7.570;2023-12-04T13:53:05;3.90;99.90
19132;DHT22;9698;51.976;7.570;2023-12-04T13:58:14;3.60;99.90
19132;DHT22;9698;51.976;7.570;2023-12-04T14:01:05;3.70;99.90
19132;DHT22;9698;51.976;7.570;2023-12-04T14:03:42;3.60;99.90
19132;DHT22;9698;51.976;7.570;2023-12-04T14:06:11;3.60;99.90
19132;DHT22;9698;51.976;7.570;2023-12-04T14:08:40;3.70;99.90
19132;DHT22;9698;51.976;7.570;2023-12-04T14:11:08;3.60;99.90
19132;DHT22;9698;51.976;7.570;2023-12-04T14:13:38;3.70;99.90
19132;DHT22;9698;51.976;7.570;2023-12-04T14:16:08;3.50;99.90
19132;DHT22;9698;51.976;7.570;2023-12-04T14:18:37;3.50;99.90
19132;DHT22;9698;51.976;7.570;2023-12-04T14:21:06;3.40;99.90
19132;DHT22;9698;51.976;7.570;2023-12-04T14:23:34;3.50;99.90
19132;DHT22;9698;51.976;7.570;2023-12-04T14:26:02;3.40;99.90
19132;DHT22;9698;51.976;7.570;2023-12-04T14:28:30;3.40;99.90
19132;DHT22;9698;51.976;7.570;2023-12-04T14:31:09;3.40;99.90
19132;DHT22;9698;51.976;7.570;2023-12-04T14:33:37;3.50;99.90
19132;DHT22;9698;51.976;7.570;2023-12-04T14:36:11;3.50;99.90
19132;DHT22;9698;51.976;7.570;2023-12-04T14:38:40;3.40;99.90
19132;DHT22;9698;51.976;7.570;2023-12-04T14:41:08;3.40;99.90
19132;DHT22;9698;51.976;7.570;2023-12-04T14:43:37;3.30;99.90
19132;DHT22;9698;51.976;7.570;2023-12-04T14:46:06;3.50;99.90
19132;DHT22;9698;51.976;7.570;2023-12-04T14:48:38;3.30;99.90
19132;DHT22;9698;51.976;7.570;2023-12-04T14:51:08;3.40;99.90
19132;DHT22;9698;51.976;7.570;2023-12-04T14:53:38;3.60;99.90
19132;DHT22;9698;51.976;7.570;2023-12-04T14:56:14;3.40;99.90
19132;DHT22;9698;51.976;7.570;2023-12-04T14:58:50;3.50;99.90
19132;DHT22;9698;51.976;7.570;2023-12-04T15:01:39;3.50;99.90
19132;DHT22;9698;51.976;7.570;2023-12-04T15:04:26;3.30;99.90
19132;DHT22;9698;51.976;7.570;2023-12-04T15:07:14;3.30;99.90
19132;DHT22;9698;51.976;7.570;2023-12-04T15:10:02;3.40;99.90
19132;DHT22;9698;51.976;7.570;2023-12-04T15:12:52;3.40;99.90
19132;DHT22;9698;51.976;7.570;2023-12-04T15:15:42;3.40;99.90
19132;DHT22;9698;51.976;7.570;2023-12-04T15:18:30;3.20;99.90
19132;DHT22;9698;51.976;7.570;2023-12-04T15:21:06;3.40;99.90
19132;DHT22;9698;51.976;7.570;2023-12-04T15:23:34;3.30;99.90
19132;DHT22;9698;51.976;7.570;2023-12-04T15:26:02;3.30;99.90
19132;DHT22;9698;51.976;7.570;2023-12-04T15:28:30;3.20;99.90
19132;DHT22;9698;51.976;7.570;2023-12-04T15:30:58;3.20;99.90
19132;DHT22;9698;51.976;7.570;2023-12-04T15:35:55;3.40;99.90
19132;DHT22;9698;51.976;7.570;2023-12-04T15:38:23;3.30;99.90
19132;DHT22;9698;51.976;7.570;2023-12-04T15:40:52;3.30;99.90
19132;DHT22;9698;51.976;7.570;2023-12-04T15:43:20;3.30;99.90
19132;DHT22;9698;51.976;7.570;2023-12-04T15:45:48;3.20;99.90
19132;DHT22;9698;51.976;7.570;2023-12-04T15:48:16;3.20;99.90
19132;DHT22;9698;51.976;7.570;2023-12-04T15:50:44;3.20;99.90
19132;DHT22;9698;51.976;7.570;2023-12-04T15:53:12;3.10;99.90
19132;DHT22;9698;51.976;7.570;2023-12-04T15:55:41;3.10;99.90
19132;DHT22;9698;51.976;7.570;2023-12-04T16:00:36;3.00;99.90
19132;DHT22;9698;51.976;7.570;2023-12-04T16:03:06;3.00;99.90
19132;DHT22;9698;51.976;7.570;2023-12-04T16:05:34;3.00;99.90
19132;DHT22;9698;51.976;7.570;2023-12-04T16:08:02;2.90;99.90
19132;DHT22;9698;51.976;7.570;2023-12-04T16:10:30;3.10;99.90
19132;DHT22;9698;51.976;7.570;2023-12-04T16:12:58;3.00;99.90
19132;DHT22;9698;51.976;7.570;2023-12-04T16:15:26;3.00;99.90
19132;DHT22;9698;51.976;7.570;2023-12-04T16:17:55;3.00;99.90
19132;DHT22;9698;51.976;7.570;2023-12-04T16:20:23;3.00;99.90
19132;DHT22;9698;51.976;7.570;2023-12-04T16:22:51;3.10;99.90
19132;DHT22;9698;51.976;7.570;2023-12-04T16:25:19;3.00;99.90
19132;DHT22;9698;51.976;7.570;2023-12-04T16:27:48;3.00;99.90
19132;DHT22;9698;51.976;7.570;2023-12-04T16:30:18;2.90;99.90
19132;DHT22;9698;51.976;7.570;2023-12-04T16:32:47;2.90;99.90